Bethlehem, Connecticut
Current Conditions -  °F | °C
As of 10:35 PM on Wednesday 22 Oct 2014 (Local Time) from KOXC Reporting Station
Overcast Overcast  
Wind Chill: 42°   Ceiling: 1300
Heat Index: 48°   Visibility: 10mi
Dew Point: 41°   Wind: 18mph
Humidity: 76%   Direction: 30°NNE
Pressure: 29.78"   Gusts: 32mph
Location:  41.64°N, 73.21°W
Report Text: KOXC 230235Z 03016G28KT 10SM BKN013 OVC019 09/05 A2978 RMK AO1 P0007
Loading
Personal Weather Stations






























Interactive Weather Map
Tropical Storm Tracking
New forecast layout! Learn more

10-Day Weather Forecast

Advertisements
Track Severe Weather on mobile